sensor_id;sensor_type;location;lat;lon;timestamp;pressure;altitude;pressure_sealevel;temperature;humidity
35553;BME280;21656;46.054;13.614;2022-08-19T06:49:05;99878.94;;;21.04;99.45
35553;BME280;21656;46.054;13.614;2022-08-19T06:51:33;99880.81;;;21.04;100.00
35553;BME280;21656;46.054;13.614;2022-08-19T06:53:59;99874.34;;;21.18;100.00
35553;BME280;21656;46.054;13.614;2022-08-19T06:56:28;99873.25;;;20.99;97.82
35553;BME280;21656;46.054;13.614;2022-08-19T06:59:06;99872.41;;;21.05;100.00
35553;BME280;21656;46.054;13.614;2022-08-19T07:01:36;99866.94;;;21.05;100.00
35553;BME280;21656;46.054;13.614;2022-08-19T07:04:03;99866.09;;;21.05;97.62
35553;BME280;21656;46.054;13.614;2022-08-19T07:06:29;99857.44;;;20.94;98.58
35553;BME280;21656;46.054;13.614;2022-08-19T07:08:57;99860.19;;;21.01;96.51
35553;BME280;21656;46.054;13.614;2022-08-19T07:11:23;99869.66;;;21.05;100.00
35553;BME280;21656;46.054;13.614;2022-08-19T07:13:49;99873.47;;;21.04;95.53
35553;BME280;21656;46.054;13.614;2022-08-19T07:16:16;99865.06;;;21.12;92.96
35553;BME280;21656;46.054;13.614;2022-08-19T07:18:42;99870.75;;;21.11;95.74
35553;BME280;21656;46.054;13.614;2022-08-19T07:21:13;99866.31;;;21.16;90.74
35553;BME280;21656;46.054;13.614;2022-08-19T07:23:39;99858.97;;;21.24;90.51
35553;BME280;21656;46.054;13.614;2022-08-19T07:26:11;99861.53;;;21.25;90.95
35553;BME280;21656;46.054;13.614;2022-08-19T07:28:37;99851.00;;;21.22;90.45
35553;BME280;21656;46.054;13.614;2022-08-19T07:31:10;99851.59;;;21.24;92.92
35553;BME280;21656;46.054;13.614;2022-08-19T07:33:36;99839.63;;;21.25;90.58
35553;BME280;21656;46.054;13.614;2022-08-19T07:36:06;99839.00;;;21.30;90.18
35553;BME280;21656;46.054;13.614;2022-08-19T07:38:33;99833.53;;;21.30;88.46
35553;BME280;21656;46.054;13.614;2022-08-19T07:41:00;99843.41;;;21.31;88.21
35553;BME280;21656;46.054;13.614;2022-08-19T07:43:26;99847.22;;;21.30;90.30
35553;BME280;21656;46.054;13.614;2022-08-19T07:45:55;99839.22;;;21.35;91.88
35553;BME280;21656;46.054;13.614;2022-08-19T07:48:25;99834.19;;;21.38;87.81
35553;BME280;21656;46.054;13.614;2022-08-19T07:51:01;99840.56;;;21.52;88.95
35553;BME280;21656;46.054;13.614;2022-08-19T07:53:29;99847.50;;;21.61;85.73
35553;BME280;21656;46.054;13.614;2022-08-19T07:55:55;99843.06;;;21.67;87.46
35553;BME280;21656;46.054;13.614;2022-08-19T07:58:41;99847.50;;;21.81;88.27
35553;BME280;21656;46.054;13.614;2022-08-19T08:01:10;99855.72;;;21.88;91.53
35553;BME280;21656;46.054;13.614;2022-08-19T08:03:36;99846.25;;;21.84;91.40
35553;BME280;21656;46.054;13.614;2022-08-19T08:06:22;99845.41;;;21.83;95.23
35553;BME280;21656;46.054;13.614;2022-08-19T08:09:09;99845.38;;;21.77;90.10
35553;BME280;21656;46.054;13.614;2022-08-19T08:11:46;99844.34;;;21.84;86.34
35553;BME280;21656;46.054;13.614;2022-08-19T08:14:15;99846.66;;;21.88;87.02
35553;BME280;21656;46.054;13.614;2022-08-19T08:16:40;99844.97;;;21.86;87.88
35553;BME280;21656;46.054;13.614;2022-08-19T08:19:07;99851.09;;;21.89;86.60
35553;BME280;21656;46.054;13.614;2022-08-19T08:21:33;99847.91;;;21.85;88.33
35553;BME280;21656;46.054;13.614;2022-08-19T08:23:59;99846.44;;;21.82;86.52
35553;BME280;21656;46.054;13.614;2022-08-19T08:26:25;99854.88;;;21.88;86.66
35553;BME280;21656;46.054;13.614;2022-08-19T08:28:51;99852.56;;;21.91;87.21
35553;BME280;21656;46.054;13.614;2022-08-19T08:31:17;99856.59;;;21.95;90.48
35553;BME280;21656;46.054;13.614;2022-08-19T08:33:46;99854.25;;;21.92;88.22
35553;BME280;21656;46.054;13.614;2022-08-19T08:36:13;99852.56;;;21.98;86.26
35553;BME280;21656;46.054;13.614;2022-08-19T08:38:39;99851.28;;;21.87;90.13
35553;BME280;21656;46.054;13.614;2022-08-19T08:41:22;99859.31;;;21.82;92.55
35553;BME280;21656;46.054;13.614;2022-08-19T08:43:54;99868.34;;;21.69;90.07
35553;BME280;21656;46.054;13.614;2022-08-19T08:46:29;99890.91;;;21.64;90.66
35553;BME280;21656;46.054;13.614;2022-08-19T08:51:38;99898.38;;;21.23;100.00
35553;BME280;21656;46.054;13.614;2022-08-19T08:54:08;99889.63;;;20.92;100.00
35553;BME280;21656;46.054;13.614;2022-08-19T08:56:37;99905.81;;;20.94;100.00
35553;BME280;21656;46.054;13.614;2022-08-19T08:59:07;99881.78;;;20.83;100.00
35553;BME280;21656;46.054;13.614;2022-08-19T09:01:35;99894.81;;;20.74;100.00
35553;BME280;21656;46.054;13.614;2022-08-19T09:04:05;99922.47;;;20.58;100.00
35553;BME280;21656;46.054;13.614;2022-08-19T09:07:22;99924.56;;;20.55;100.00
35553;BME280;21656;46.054;13.614;2022-08-19T09:09:34;99910.28;;;20.60;100.00
35553;BME280;21656;46.054;13.614;2022-08-19T09:12:54;99929.19;;;20.55;100.00
35553;BME280;21656;46.054;13.614;2022-08-19T09:14:56;99915.50;;;20.55;100.00
35553;BME280;21656;46.054;13.614;2022-08-19T09:17:27;99915.59;;;20.68;100.00
35553;BME280;21656;46.054;13.614;2022-08-19T09:20:29;99920.44;;;20.66;100.00
35553;BME280;21656;46.054;13.614;2022-08-19T09:22:47;99924.44;;;20.70;100.00
35553;BME280;21656;46.054;13.614;2022-08-19T09:25:18;99918.31;;;20.68;100.00
35553;BME280;21656;46.054;13.614;2022-08-19T09:27:45;99919.56;;;20.66;100.00
35553;BME280;21656;46.054;13.614;2022-08-19T09:30:24;99929.47;;;20.67;100.00
35553;BME280;21656;46.054;13.614;2022-08-19T09:32:50;99936.63;;;20.68;100.00
35553;BME280;21656;46.054;13.614;2022-08-19T09:35:19;99929.25;;;20.68;100.00
35553;BME280;21656;46.054;13.614;2022-08-19T09:37:44;99925.44;;;20.63;100.00
35553;BME280;21656;46.054;13.614;2022-08-19T09:40:10;99928.88;;;20.71;100.00
35553;BME280;21656;46.054;13.614;2022-08-19T09:42:36;99940.19;;;20.68;100.00
35553;BME280;21656;46.054;13.614;2022-08-19T09:45:02;99922.06;;;20.61;100.00
35553;BME280;21656;46.054;13.614;2022-08-19T09:47:29;99918.06;;;20.56;100.00
35553;BME280;21656;46.054;13.614;2022-08-19T09:49:54;99919.75;;;20.58;100.00
35553;BME280;21656;46.054;13.614;2022-08-19T09:52:20;99918.25;;;20.55;100.00
35553;BME280;21656;46.054;13.614;2022-08-19T09:54:45;99923.72;;;20.55;100.00
35553;BME280;21656;46.054;13.614;2022-08-19T09:57:11;99942.88;;;20.55;100.00
35553;BME280;21656;46.054;13.614;2022-08-19T09:59:40;99963.03;;;20.54;100.00
35553;BME280;21656;46.054;13.614;2022-08-19T10:02:08;99913.81;;;20.54;100.00
35553;BME280;21656;46.054;13.614;2022-08-19T10:04:35;99900.25;;;20.39;100.00
35553;BME280;21656;46.054;13.614;2022-08-19T10:07:19;99900.50;;;20.44;100.00
35553;BME280;21656;46.054;13.614;2022-08-19T10:09:44;99898.44;;;20.53;100.00
35553;BME280;21656;46.054;13.614;2022-08-19T10:12:09;99898.34;;;20.68;100.00
35553;BME280;21656;46.054;13.614;2022-08-19T10:14:35;99895.47;;;20.83;100.00
35553;BME280;21656;46.054;13.614;2022-08-19T10:17:02;99903.03;;;20.81;100.00
35553;BME280;21656;46.054;13.614;2022-08-19T10:19:28;99899.09;;;20.90;100.00
35553;BME280;21656;46.054;13.614;2022-08-19T10:21:57;99890.91;;;20.96;100.00
35553;BME280;21656;46.054;13.614;2022-08-19T10:24:23;99893.47;;;21.05;100.00
35553;BME280;21656;46.054;13.614;2022-08-19T10:26:49;99893.88;;;21.08;100.00
35553;BME280;21656;46.054;13.614;2022-08-19T10:29:14;99904.69;;;21.23;100.00
35553;BME280;21656;46.054;13.614;2022-08-19T10:31:41;99885.75;;;21.28;100.00
35553;BME280;21656;46.054;13.614;2022-08-19T10:34:07;99894.00;;;21.35;100.00
35553;BME280;21656;46.054;13.614;2022-08-19T10:36:35;99891.44;;;21.33;100.00
35553;BME280;21656;46.054;13.614;2022-08-19T10:39:08;99872.69;;;21.30;100.00
35553;BME280;21656;46.054;13.614;2022-08-19T10:41:37;99867.22;;;21.30;100.00
35553;BME280;21656;46.054;13.614;2022-08-19T10:44:06;99864.47;;;21.30;100.00
35553;BME280;21656;46.054;13.614;2022-08-19T10:46:36;99873.56;;;21.37;100.00
35553;BME280;21656;46.054;13.614;2022-08-19T10:49:03;99852.28;;;21.33;100.00
35553;BME280;21656;46.054;13.614;2022-08-19T10:51:31;99854.78;;;21.34;100.00
35553;BME280;21656;46.054;13.614;2022-08-19T10:54:16;99861.97;;;21.35;100.00
35553;BME280;21656;46.054;13.614;2022-08-19T10:56:42;99848.06;;;21.37;100.00
35553;BME280;21656;46.054;13.614;2022-08-19T10:59:28;99854.19;;;21.39;100.00
35553;BME280;21656;46.054;13.614;2022-08-19T11:01:59;99846.88;;;21.53;100.00
35553;BME280;21656;46.054;13.614;2022-08-19T11:04:26;99845.38;;;21.50;100.00
35553;BME280;21656;46.054;13.614;2022-08-19T11:06:53;99856.13;;;21.52;100.00
35553;BME280;21656;46.054;13.614;2022-08-19T11:09:21;99857.81;;;21.53;100.00
35553;BME280;21656;46.054;13.614;2022-08-19T11:11:50;99844.53;;;21.56;100.00
35553;BME280;21656;46.054;13.614;2022-08-19T11:14:19;99847.72;;;21.67;100.00
35553;BME280;21656;46.054;13.614;2022-08-19T11:16:45;99843.72;;;21.62;100.00
35553;BME280;21656;46.054;13.614;2022-08-19T11:19:12;99842.03;;;21.68;100.00
35553;BME280;21656;46.054;13.614;2022-08-19T11:21:42;99840.13;;;21.69;100.00
35553;BME280;21656;46.054;13.614;2022-08-19T11:24:19;99831.47;;;21.72;100.00
35553;BME280;21656;46.054;13.614;2022-08-19T11:26:47;99851.28;;;21.67;100.00
35553;BME280;21656;46.054;13.614;2022-08-19T11:29:19;99869.41;;;21.48;100.00
35553;BME280;21656;46.054;13.614;2022-08-19T11:31:47;99892.53;;;21.39;100.00
35553;BME280;21656;46.054;13.614;2022-08-19T11:34:17;99923.69;;;21.38;100.00
35553;BME280;21656;46.054;13.614;2022-08-19T11:36:45;99962.91;;;21.38;100.00
35553;BME280;21656;46.054;13.614;2022-08-19T11:39:13;99985.16;;;21.29;100.00
35553;BME280;21656;46.054;13.614;2022-08-19T11:41:39;99982.88;;;21.32;100.00
35553;BME280;21656;46.054;13.614;2022-08-19T11:44:06;99949.38;;;21.37;100.00
35553;BME280;21656;46.054;13.614;2022-08-19T11:46:34;99942.41;;;21.34;100.00
35553;BME280;21656;46.054;13.614;2022-08-19T11:49:00;99958.94;;;21.48;100.00
35553;BME280;21656;46.054;13.614;2022-08-19T11:51:27;99986.78;;;21.58;100.00
35553;BME280;21656;46.054;13.614;2022-08-19T11:53:54;99988.91;;;21.62;100.00
35553;BME280;21656;46.054;13.614;2022-08-19T11:56:21;99975.25;;;21.76;100.00
35553;BME280;21656;46.054;13.614;2022-08-19T11:58:47;99969.78;;;22.02;100.00
35553;BME280;21656;46.054;13.614;2022-08-19T12:01:15;99962.44;;;22.49;100.00
35553;BME280;21656;46.054;13.614;2022-08-19T12:03:43;99972.53;;;22.76;100.00
35553;BME280;21656;46.054;13.614;2022-08-19T12:06:12;99978.66;;;22.84;100.00
35553;BME280;21656;46.054;13.614;2022-08-19T12:08:39;99977.34;;;22.93;100.00
35553;BME280;21656;46.054;13.614;2022-08-19T12:11:05;99987.25;;;23.14;100.00
35553;BME280;21656;46.054;13.614;2022-08-19T12:13:34;99964.63;;;23.19;100.00
35553;BME280;21656;46.054;13.614;2022-08-19T12:16:00;99967.13;;;23.27;100.00
35553;BME280;21656;46.054;13.614;2022-08-19T12:18:26;99964.69;;;23.51;100.00
35553;BME280;21656;46.054;13.614;2022-08-19T12:20:53;99963.72;;;23.77;100.00
35553;BME280;21656;46.054;13.614;2022-08-19T12:23:22;99963.94;;;24.07;100.00
35553;BME280;21656;46.054;13.614;2022-08-19T12:25:49;99951.16;;;24.44;100.00
35553;BME280;21656;46.054;13.614;2022-08-19T12:28:21;99956.56;;;24.58;100.00
35553;BME280;21656;46.054;13.614;2022-08-19T12:30:49;99959.94;;;24.60;99.54
35553;BME280;21656;46.054;13.614;2022-08-19T12:33:18;99946.84;;;24.55;100.00
35553;BME280;21656;46.054;13.614;2022-08-19T12:35:45;99937.59;;;24.50;100.00
35553;BME280;21656;46.054;13.614;2022-08-19T12:38:12;99930.31;;;24.55;100.00
35553;BME280;21656;46.054;13.614;2022-08-19T12:40:39;99919.16;;;24.69;100.00
35553;BME280;21656;46.054;13.614;2022-08-19T12:43:06;99928.06;;;24.89;100.00
35553;BME280;21656;46.054;13.614;2022-08-19T12:45:32;99926.25;;;25.20;100.00
35553;BME280;21656;46.054;13.614;2022-08-19T12:47:58;99923.81;;;25.42;85.63
35553;BME280;21656;46.054;13.614;2022-08-19T12:50:24;99909.47;;;25.40;84.44
35553;BME280;21656;46.054;13.614;2022-08-19T12:52:49;99915.59;;;25.05;84.71
35553;BME280;21656;46.054;13.614;2022-08-19T12:55:15;99931.97;;;25.00;85.04
35553;BME280;21656;46.054;13.614;2022-08-19T12:57:40;99931.41;;;24.91;86.16
35553;BME280;21656;46.054;13.614;2022-08-19T13:00:07;99934.69;;;24.63;86.69
35553;BME280;21656;46.054;13.614;2022-08-19T13:02:37;99919.25;;;24.37;89.46
35553;BME280;21656;46.054;13.614;2022-08-19T13:05:04;99921.03;;;24.56;87.33
35553;BME280;21656;46.054;13.614;2022-08-19T13:07:31;99917.34;;;24.81;85.24
35553;BME280;21656;46.054;13.614;2022-08-19T13:09:58;99918.28;;;24.93;85.21
35553;BME280;21656;46.054;13.614;2022-08-19T13:12:24;99912.44;;;25.01;82.81
35553;BME280;21656;46.054;13.614;2022-08-19T13:14:49;99907.69;;;25.08;84.67
35553;BME280;21656;46.054;13.614;2022-08-19T13:17:15;99895.63;;;25.09;80.56
35553;BME280;21656;46.054;13.614;2022-08-19T13:19:41;99896.81;;;25.14;83.15
35553;BME280;21656;46.054;13.614;2022-08-19T13:22:06;99897.75;;;25.26;78.88
35553;BME280;21656;46.054;13.614;2022-08-19T13:24:32;99887.22;;;25.23;78.59
35553;BME280;21656;46.054;13.614;2022-08-19T13:27:01;99883.28;;;25.30;78.06
35553;BME280;21656;46.054;13.614;2022-08-19T13:29:27;99879.84;;;25.35;79.38
35553;BME280;21656;46.054;13.614;2022-08-19T13:32:12;99877.09;;;25.47;78.67
35553;BME280;21656;46.054;13.614;2022-08-19T13:35:12;99879.78;;;25.54;77.41
35553;BME280;21656;46.054;13.614;2022-08-19T13:37:38;99885.34;;;25.65;76.65
35553;BME280;21656;46.054;13.614;2022-08-19T13:40:17;99882.09;;;25.68;75.83
35553;BME280;21656;46.054;13.614;2022-08-19T13:42:49;99880.19;;;25.69;75.68
35553;BME280;21656;46.054;13.614;2022-08-19T13:45:17;99882.47;;;25.72;75.01
35553;BME280;21656;46.054;13.614;2022-08-19T13:47:45;99877.56;;;25.74;74.42
35553;BME280;21656;46.054;13.614;2022-08-19T13:50:13;99879.59;;;25.79;74.62
35553;BME280;21656;46.054;13.614;2022-08-19T13:52:39;99881.06;;;25.81;75.54
35553;BME280;21656;46.054;13.614;2022-08-19T13:55:05;99879.72;;;25.84;73.42
35553;BME280;21656;46.054;13.614;2022-08-19T13:57:32;99892.84;;;25.88;75.86
35553;BME280;21656;46.054;13.614;2022-08-19T13:59:57;99885.41;;;25.89;77.12
35553;BME280;21656;46.054;13.614;2022-08-19T14:02:24;99887.34;;;25.88;74.03
35553;BME280;21656;46.054;13.614;2022-08-19T14:04:50;99887.06;;;25.90;73.81
35553;BME280;21656;46.054;13.614;2022-08-19T14:07:15;99885.41;;;25.89;74.62
35553;BME280;21656;46.054;13.614;2022-08-19T14:09:41;99879.41;;;25.92;74.10
35553;BME280;21656;46.054;13.614;2022-08-19T14:12:06;99889.38;;;26.05;73.63
35553;BME280;21656;46.054;13.614;2022-08-19T14:14:32;99882.06;;;26.10;74.97
35553;BME280;21656;46.054;13.614;2022-08-19T14:17:01;99879.44;;;26.15;76.24
35553;BME280;21656;46.054;13.614;2022-08-19T14:19:26;99877.06;;;26.31;73.23
35553;BME280;21656;46.054;13.614;2022-08-19T14:21:51;99873.22;;;26.32;72.06
35553;BME280;21656;46.054;13.614;2022-08-19T14:24:17;99873.81;;;26.34;71.67
35553;BME280;21656;46.054;13.614;2022-08-19T14:26:42;99872.38;;;26.31;70.43
35553;BME280;21656;46.054;13.614;2022-08-19T14:29:08;99864.09;;;26.31;72.01
35553;BME280;21656;46.054;13.614;2022-08-19T14:31:33;99871.78;;;26.41;71.81
35553;BME280;21656;46.054;13.614;2022-08-19T14:33:58;99868.25;;;26.46;70.97
35553;BME280;21656;46.054;13.614;2022-08-19T14:36:24;99866.38;;;26.46;69.78
35553;BME280;21656;46.054;13.614;2022-08-19T14:38:49;99869.47;;;26.50;70.21
35553;BME280;21656;46.054;13.614;2022-08-19T14:41:18;99871.41;;;26.49;68.87
35553;BME280;21656;46.054;13.614;2022-08-19T14:43:47;99856.78;;;26.49;69.63
35553;BME280;21656;46.054;13.614;2022-08-19T14:46:19;99851.81;;;26.51;68.77
35553;BME280;21656;46.054;13.614;2022-08-19T14:48:46;99849.91;;;26.51;68.48
35553;BME280;21656;46.054;13.614;2022-08-19T14:51:12;99847.28;;;26.45;68.48
35553;BME280;21656;46.054;13.614;2022-08-19T14:53:37;99840.34;;;26.54;68.74
35553;BME280;21656;46.054;13.614;2022-08-19T14:56:15;99839.25;;;26.55;69.54
35553;BME280;21656;46.054;13.614;2022-08-19T14:58:42;99835.16;;;26.57;68.83
35553;BME280;21656;46.054;13.614;2022-08-19T15:01:08;99829.16;;;26.61;68.86
35553;BME280;21656;46.054;13.614;2022-08-19T15:03:34;99830.84;;;26.62;68.92
35553;BME280;21656;46.054;13.614;2022-08-19T15:06:02;99830.84;;;26.62;71.11
35553;BME280;21656;46.054;13.614;2022-08-19T15:08:29;99829.16;;;26.61;70.78
35553;BME280;21656;46.054;13.614;2022-08-19T15:10:56;99815.00;;;26.57;70.50
35553;BME280;21656;46.054;13.614;2022-08-19T15:13:23;99818.47;;;26.64;69.84
35553;BME280;21656;46.054;13.614;2022-08-19T15:15:49;99818.47;;;26.64;70.02
35553;BME280;21656;46.054;13.614;2022-08-19T15:18:17;99813.69;;;26.59;70.36
35553;BME280;21656;46.054;13.614;2022-08-19T15:20:42;99815.94;;;26.63;68.81
35553;BME280;21656;46.054;13.614;2022-08-19T15:23:09;99813.19;;;26.63;68.88
35553;BME280;21656;46.054;13.614;2022-08-19T15:25:36;99813.19;;;26.63;70.06
35553;BME280;21656;46.054;13.614;2022-08-19T15:28:02;99811.53;;;26.62;70.06
35553;BME280;21656;46.054;13.614;2022-08-19T15:30:29;99812.38;;;26.62;70.68
35553;BME280;21656;46.054;13.614;2022-08-19T15:32:56;99809.34;;;26.64;70.47
35553;BME280;21656;46.054;13.614;2022-08-19T15:35:25;99818.22;;;26.66;69.79
35553;BME280;21656;46.054;13.614;2022-08-19T15:37:52;99816.78;;;26.63;69.09
35553;BME280;21656;46.054;13.614;2022-08-19T15:40:19;99809.81;;;26.61;70.39
35553;BME280;21656;46.054;13.614;2022-08-19T15:42:46;99805.00;;;26.68;71.15
35553;BME280;21656;46.054;13.614;2022-08-19T15:45:12;99815.72;;;26.64;71.79
35553;BME280;21656;46.054;13.614;2022-08-19T15:47:39;99812.47;;;26.67;72.12
35553;BME280;21656;46.054;13.614;2022-08-19T15:50:11;99813.91;;;26.70;73.17
35553;BME280;21656;46.054;13.614;2022-08-19T15:52:52;99823.63;;;26.72;74.16
35553;BME280;21656;46.054;13.614;2022-08-19T15:55:21;99824.56;;;26.66;72.11
35553;BME280;21656;46.054;13.614;2022-08-19T15:57:47;99823.34;;;26.86;73.86
35553;BME280;21656;46.054;13.614;2022-08-19T16:00:31;99830.78;;;26.85;73.07
35553;BME280;21656;46.054;13.614;2022-08-19T16:03:15;99828.72;;;26.92;71.95
35553;BME280;21656;46.054;13.614;2022-08-19T16:06:00;99835.91;;;26.93;72.77
35553;BME280;21656;46.054;13.614;2022-08-19T16:08:44;99839.91;;;26.86;72.28
35553;BME280;21656;46.054;13.614;2022-08-19T16:11:13;99849.19;;;26.79;73.14
35553;BME280;21656;46.054;13.614;2022-08-19T16:13:39;99844.28;;;26.70;73.92
35553;BME280;21656;46.054;13.614;2022-08-19T16:16:06;99846.44;;;26.68;72.69
35553;BME280;21656;46.054;13.614;2022-08-19T16:18:31;99845.50;;;26.62;73.46
35553;BME280;21656;46.054;13.614;2022-08-19T16:21:05;99845.22;;;26.64;73.61
35553;BME280;21656;46.054;13.614;2022-08-19T16:23:33;99852.94;;;26.62;74.61
35553;BME280;21656;46.054;13.614;2022-08-19T16:25:58;99850.63;;;26.58;74.00
35553;BME280;21656;46.054;13.614;2022-08-19T16:28:24;99852.94;;;26.62;74.13
35553;BME280;21656;46.054;13.614;2022-08-19T16:30:50;99854.72;;;26.56;74.17
35553;BME280;21656;46.054;13.614;2022-08-19T16:33:15;99863.13;;;26.49;76.01
35553;BME280;21656;46.054;13.614;2022-08-19T16:35:40;99861.09;;;26.45;76.19
35553;BME280;21656;46.054;13.614;2022-08-19T16:38:06;99859.41;;;26.44;77.66
35553;BME280;21656;46.054;13.614;2022-08-19T16:40:32;99854.72;;;26.32;79.77
35553;BME280;21656;46.054;13.614;2022-08-19T16:42:59;99851.84;;;26.27;78.58
35553;BME280;21656;46.054;13.614;2022-08-19T16:45:25;99845.97;;;26.24;79.74
35553;BME280;21656;46.054;13.614;2022-08-19T16:47:50;99842.00;;;26.20;81.17
35553;BME280;21656;46.054;13.614;2022-08-19T16:50:17;99844.88;;;26.13;81.35
35553;BME280;21656;46.054;13.614;2022-08-19T16:52:44;99852.34;;;26.01;82.05
35553;BME280;21656;46.054;13.614;2022-08-19T16:55:12;99858.78;;;25.94;82.82
35553;BME280;21656;46.054;13.614;2022-08-19T16:57:37;99863.13;;;25.90;82.88
35553;BME280;21656;46.054;13.614;2022-08-19T17:00:05;99858.75;;;25.83;83.25
35553;BME280;21656;46.054;13.614;2022-08-19T17:02:35;99852.25;;;25.77;83.16
35553;BME280;21656;46.054;13.614;2022-08-19T17:05:01;99853.09;;;25.66;86.31
35553;BME280;21656;46.054;13.614;2022-08-19T17:07:28;99854.28;;;25.58;88.03
35553;BME280;21656;46.054;13.614;2022-08-19T17:09:54;99858.19;;;25.50;89.19
35553;BME280;21656;46.054;13.614;2022-08-19T17:12:20;99867.50;;;25.38;89.67
35553;BME280;21656;46.054;13.614;2022-08-19T17:14:45;99872.88;;;25.33;89.97
35553;BME280;21656;46.054;13.614;2022-08-19T17:17:11;99869.28;;;25.32;90.64
35553;BME280;21656;46.054;13.614;2022-08-19T17:19:38;99863.78;;;25.32;90.19
35553;BME280;21656;46.054;13.614;2022-08-19T17:22:06;99862.56;;;25.28;92.10
35553;BME280;21656;46.054;13.614;2022-08-19T17:24:31;99859.66;;;25.23;92.53
35553;BME280;21656;46.054;13.614;2022-08-19T17:26:56;99867.78;;;25.18;92.74
35553;BME280;21656;46.054;13.614;2022-08-19T17:29:22;99868.44;;;25.13;92.88
35553;BME280;21656;46.054;13.614;2022-08-19T17:31:47;99870.84;;;25.09;92.81
35553;BME280;21656;46.054;13.614;2022-08-19T17:34:13;99872.16;;;25.07;92.82
35553;BME280;21656;46.054;13.614;2022-08-19T17:36:38;99871.75;;;25.03;97.53
35553;BME280;21656;46.054;13.614;2022-08-19T17:39:03;99883.91;;;24.96;98.08
35553;BME280;21656;46.054;13.614;2022-08-19T17:41:29;99889.22;;;24.79;99.54
35553;BME280;21656;46.054;13.614;2022-08-19T17:43:55;99896.88;;;24.77;97.09
35553;BME280;21656;46.054;13.614;2022-08-19T17:46:21;99898.38;;;24.73;97.19
35553;BME280;21656;46.054;13.614;2022-08-19T17:48:48;99907.72;;;24.72;96.20
35553;BME280;21656;46.054;13.614;2022-08-19T17:51:19;99905.88;;;24.65;97.23
35553;BME280;21656;46.054;13.614;2022-08-19T17:53:46;99914.97;;;24.66;97.27
35553;BME280;21656;46.054;13.614;2022-08-19T17:56:12;99918.59;;;24.67;94.71
35553;BME280;21656;46.054;13.614;2022-08-19T17:58:40;99928.50;;;24.49;100.00
35553;BME280;21656;46.054;13.614;2022-08-19T18:01:10;99927.06;;;24.40;100.00
35553;BME280;21656;46.054;13.614;2022-08-19T18:03:38;99942.94;;;24.38;99.54
35553;BME280;21656;46.054;13.614;2022-08-19T18:06:04;99956.69;;;24.38;97.10
35553;BME280;21656;46.054;13.614;2022-08-19T18:08:30;99956.47;;;24.39;96.63
35553;BME280;21656;46.054;13.614;2022-08-19T18:10:55;99962.00;;;24.39;99.02
35553;BME280;21656;46.054;13.614;2022-08-19T18:13:21;99957.63;;;24.32;100.00
35553;BME280;21656;46.054;13.614;2022-08-19T18:15:46;99962.31;;;24.25;100.00
35553;BME280;21656;46.054;13.614;2022-08-19T18:18:12;99964.69;;;24.21;100.00
35553;BME280;21656;46.054;13.614;2022-08-19T18:20:37;99966.66;;;24.14;100.00
35553;BME280;21656;46.054;13.614;2022-08-19T18:23:03;99953.28;;;24.17;100.00
35553;BME280;21656;46.054;13.614;2022-08-19T18:25:29;99951.44;;;24.11;100.00
35553;BME280;21656;46.054;13.614;2022-08-19T18:27:57;99963.06;;;24.13;100.00
35553;BME280;21656;46.054;13.614;2022-08-19T18:30:25;99959.03;;;24.16;99.62
35553;BME280;21656;46.054;13.614;2022-08-19T18:32:51;99962.78;;;24.21;100.00
35553;BME280;21656;46.054;13.614;2022-08-19T18:35:22;99967.97;;;24.05;100.00
35553;BME280;21656;46.054;13.614;2022-08-19T18:37:49;99969.25;;;24.02;100.00
35553;BME280;21656;46.054;13.614;2022-08-19T18:40:17;99964.19;;;24.06;100.00
35553;BME280;21656;46.054;13.614;2022-08-19T18:43:03;99966.50;;;24.02;100.00
35553;BME280;21656;46.054;13.614;2022-08-19T18:45:38;99965.88;;;24.00;100.00
35553;BME280;21656;46.054;13.614;2022-08-19T18:48:23;99969.34;;;23.95;100.00
35553;BME280;21656;46.054;13.614;2022-08-19T18:51:07;99966.22;;;23.85;100.00
35553;BME280;21656;46.054;13.614;2022-08-19T18:53:35;99969.63;;;23.81;100.00
35553;BME280;21656;46.054;13.614;2022-08-19T18:56:03;99975.38;;;23.72;100.00
35553;BME280;21656;46.054;13.614;2022-08-19T18:58:30;99979.19;;;23.65;100.00
35553;BME280;21656;46.054;13.614;2022-08-19T19:00:59;99985.56;;;23.65;100.00
35553;BME280;21656;46.054;13.614;2022-08-19T19:03:25;99979.00;;;23.73;100.00
35553;BME280;21656;46.054;13.614;2022-08-19T19:05:51;99975.56;;;23.77;100.00
35553;BME280;21656;46.054;13.614;2022-08-19T19:08:17;99976.88;;;23.62;100.00
35553;BME280;21656;46.054;13.614;2022-08-19T19:10:43;99972.34;;;23.42;100.00
35553;BME280;21656;46.054;13.614;2022-08-19T19:13:08;99978.69;;;23.43;100.00
35553;BME280;21656;46.054;13.614;2022-08-19T19:15:39;99986.13;;;23.35;100.00
35553;BME280;21656;46.054;13.614;2022-08-19T19:18:07;99988.03;;;23.35;100.00
35553;BME280;21656;46.054;13.614;2022-08-19T19:20:33;99985.28;;;23.35;100.00
35553;BME280;21656;46.054;13.614;2022-08-19T19:22:58;99990.53;;;23.36;100.00
35553;BME280;21656;46.054;13.614;2022-08-19T19:25:24;99987.19;;;23.28;100.00
35553;BME280;21656;46.054;13.614;2022-08-19T19:27:51;99993.09;;;23.31;100.00
35553;BME280;21656;46.054;13.614;2022-08-19T19:30:18;99996.03;;;23.36;100.00
35553;BME280;21656;46.054;13.614;2022-08-19T19:32:48;100001.31;;;23.38;100.00
35553;BME280;21656;46.054;13.614;2022-08-19T19:35:13;100006.44;;;23.21;100.00
35553;BME280;21656;46.054;13.614;2022-08-19T19:37:38;100011.78;;;23.03;100.00
35553;BME280;21656;46.054;13.614;2022-08-19T19:40:04;100011.13;;;23.07;100.00
35553;BME280;21656;46.054;13.614;2022-08-19T19:42:30;100020.84;;;23.03;100.00